Time;durP1;ratioP1;P1;durP2;ratioP2;P2;SDS_P1;SDS_P2;PMS_P1;PMS_P2;Temp;Humidity;BMP_temperature;BMP_pressure;BME280_temperature;BME280_humidity;BME280_pressure;Samples;Min_cycle;Max_cycle;Signal;HPM_P1;HPM_P2
2021/04/04 00:01:28;;;;;;;57.58;41.10;;;5.30;98.30;;;;;;4116223;28;20239;-82
2021/04/04 00:03:30;;;;;;;67.60;39.70;;;5.30;98.30;;;;;;4118200;28;20241;-82
2021/04/04 00:05:32;;;;;;;55.33;38.97;;;5.30;98.30;;;;;;4111266;28;20240;-82
2021/04/04 00:07:35;;;;;;;53.78;36.67;;;5.30;98.30;;;;;;4101266;28;20244;-82
2021/04/04 00:09:37;;;;;;;52.67;36.42;;;5.30;98.30;;;;;;4106335;28;20276;-83
2021/04/04 00:11:40;;;;;;;54.00;36.00;;;5.30;98.30;;;;;;4113649;28;20243;-82
2021/04/04 00:13:43;;;;;;;51.65;34.22;;;5.30;98.30;;;;;;4129981;28;20507;-82
2021/04/04 00:15:45;;;;;;;57.00;36.47;;;5.30;98.30;;;;;;4122273;28;20236;-82
2021/04/04 00:17:47;;;;;;;62.45;44.15;;;5.40;98.30;;;;;;4123377;28;20234;-82
2021/04/04 00:19:49;;;;;;;77.70;51.53;;;5.40;98.30;;;;;;4115069;28;20247;-82
2021/04/04 00:21:51;;;;;;;74.70;46.33;;;5.40;98.30;;;;;;4119097;28;20942;-83
2021/04/04 00:23:54;;;;;;;59.90;44.45;;;5.50;98.30;;;;;;4116779;28;20309;-83
2021/04/04 00:25:56;;;;;;;59.27;38.40;;;5.50;98.30;;;;;;4120154;28;20578;-83
2021/04/04 00:27:58;;;;;;;47.35;30.25;;;5.50;98.30;;;;;;4118450;28;20496;-82
2021/04/04 00:30:01;;;;;;;46.83;28.63;;;5.50;98.30;;;;;;4116588;28;20328;-83
2021/04/04 00:32:03;;;;;;;45.83;28.27;;;5.60;98.30;;;;;;4118367;28;20502;-83
2021/04/04 00:34:06;;;;;;;35.93;26.80;;;5.60;98.30;;;;;;4117809;28;20236;-83
2021/04/04 00:36:08;;;;;;;43.05;28.08;;;5.60;98.30;;;;;;4117737;28;20510;-82
2021/04/04 00:38:11;;;;;;;41.73;24.23;;;5.60;98.30;;;;;;4118204;28;20379;-83
2021/04/04 00:40:15;;;;;;;36.25;23.83;;;5.60;98.30;;;;;;4117698;28;20502;-83
2021/04/04 00:42:17;;;;;;;39.23;25.50;;;5.50;98.30;;;;;;4117698;28;20462;-83
2021/04/04 00:44:19;;;;;;;35.25;23.30;;;5.40;98.30;;;;;;4115680;28;20488;-83
2021/04/04 00:46:21;;;;;;;36.88;22.23;;;5.40;98.30;;;;;;4112545;28;20232;-83
2021/04/04 00:48:23;;;;;;;34.25;21.75;;;5.40;98.30;;;;;;4113020;28;20264;-83
2021/04/04 00:50:27;;;;;;;31.15;20.85;;;5.30;98.30;;;;;;4114768;28;20255;-83
2021/04/04 00:52:30;;;;;;;36.72;22.00;;;5.30;98.30;;;;;;4104298;28;20648;-83
2021/04/04 00:54:32;;;;;;;38.15;22.17;;;5.30;98.30;;;;;;4115886;28;20651;-83
2021/04/04 00:56:35;;;;;;;31.15;19.55;;;5.30;98.30;;;;;;4115760;28;20235;-83
2021/04/04 00:58:38;;;;;;;41.72;18.95;;;5.30;98.30;;;;;;4115985;28;20252;-83
2021/04/04 01:00:40;;;;;;;34.35;18.17;;;5.40;98.30;;;;;;4113101;28;20230;-83
2021/04/04 01:02:43;;;;;;;38.30;20.23;;;5.40;98.30;;;;;;4115681;28;20268;-83
2021/04/04 01:04:48;;;;;;;35.90;18.87;;;5.40;98.30;;;;;;4115614;28;20229;-83
2021/04/04 01:06:50;;;;;;;29.52;19.40;;;5.30;98.30;;;;;;4114847;28;20495;-83
2021/04/04 01:08:52;;;;;;;26.90;17.83;;;5.30;98.30;;;;;;4115265;28;20238;-83
2021/04/04 01:10:55;;;;;;;31.30;17.52;;;5.30;98.30;;;;;;4111349;28;20247;-82
2021/04/04 01:13:06;;;;;;;34.17;18.20;;;5.30;98.30;;;;;;4114539;28;20229;-83
2021/04/04 01:15:13;;;;;;;29.35;18.27;;;5.30;98.30;;;;;;4109922;28;20238;-83
2021/04/04 01:17:18;;;;;;;33.95;17.15;;;5.30;98.30;;;;;;4111117;28;20263;-83
2021/04/04 01:19:31;;;;;;;33.35;16.83;;;5.30;98.30;;;;;;4109727;28;20237;-82
2021/04/04 01:21:40;;;;;;;34.70;17.05;;;5.20;98.30;;;;;;4110532;28;20735;-82
2021/04/04 01:24:05;;;;;;;28.52;16.23;;;5.10;98.30;;;;;;4105298;28;20609;-82
2021/04/04 01:26:14;;;;;;;27.70;17.23;;;5.20;98.30;;;;;;4114971;28;20255;-82
2021/04/04 01:28:21;;;;;;;28.38;15.93;;;5.10;98.30;;;;;;4110169;28;20251;-82
2021/04/04 01:30:26;;;;;;;33.90;17.00;;;5.10;98.30;;;;;;4110318;28;20231;-82
2021/04/04 01:32:28;;;;;;;30.00;15.82;;;5.10;98.30;;;;;;4112102;28;20240;-82
2021/04/04 01:34:31;;;;;;;29.40;17.25;;;5.10;98.30;;;;;;4107973;28;20237;-83
2021/04/04 01:36:37;;;;;;;36.38;17.63;;;5.10;98.30;;;;;;4111809;28;20232;-82
2021/04/04 01:38:44;;;;;;;35.28;16.52;;;5.10;98.30;;;;;;4111588;28;20237;-83
2021/04/04 01:40:50;;;;;;;29.38;15.80;;;5.10;98.30;;;;;;4119601;28;20603;-82
2021/04/04 01:42:53;;;;;;;31.45;16.05;;;5.10;98.30;;;;;;4118953;28;20244;-82
2021/04/04 01:44:57;;;;;;;29.75;16.10;;;5.00;98.30;;;;;;4119374;28;20241;-82
2021/04/04 01:46:59;;;;;;;35.95;16.05;;;5.00;98.30;;;;;;4115451;28;20235;-83
2021/04/04 01:49:02;;;;;;;38.95;15.55;;;5.00;98.30;;;;;;4107252;28;20236;-82
2021/04/04 01:51:05;;;;;;;29.73;16.55;;;5.00;98.30;;;;;;4118658;28;20233;-82
2021/04/04 01:53:08;;;;;;;28.85;15.88;;;4.90;98.30;;;;;;4113615;28;20225;-82
2021/04/04 01:55:12;;;;;;;25.45;15.48;;;5.00;98.30;;;;;;4103896;28;20701;-82
2021/04/04 01:57:16;;;;;;;27.40;15.32;;;5.00;98.30;;;;;;4114167;28;20225;-82
2021/04/04 01:59:20;;;;;;;32.65;17.25;;;5.00;98.30;;;;;;4110690;28;20229;-82
2021/04/04 02:01:23;;;;;;;31.35;15.40;;;5.00;98.30;;;;;;4108704;28;20264;-82
2021/04/04 02:03:25;;;;;;;43.25;18.10;;;5.00;98.30;;;;;;4110771;28;20237;-82
2021/04/04 02:05:28;;;;;;;25.20;15.00;;;5.00;98.30;;;;;;4109722;28;20247;-82
2021/04/04 02:07:30;;;;;;;26.30;14.13;;;5.10;98.30;;;;;;4112094;28;20268;-82
2021/04/04 02:09:33;;;;;;;32.95;16.50;;;5.10;98.30;;;;;;4108500;28;20240;-82
2021/04/04 02:11:38;;;;;;;24.00;14.88;;;5.10;98.30;;;;;;4110348;28;20232;-82
2021/04/04 02:13:40;;;;;;;25.65;14.45;;;5.10;98.30;;;;;;4112587;28;20648;-82
2021/04/04 02:15:42;;;;;;;29.33;14.50;;;5.10;98.30;;;;;;4107124;28;20259;-82
2021/04/04 02:17:47;;;;;;;27.13;15.20;;;5.10;98.30;;;;;;4110225;28;20229;-81
2021/04/04 02:19:50;;;;;;;24.45;14.15;;;5.00;98.30;;;;;;4110393;28;20316;-82
2021/04/04 02:21:54;;;;;;;34.35;15.60;;;5.10;98.30;;;;;;4113854;28;20224;-82
2021/04/04 02:23:59;;;;;;;27.88;13.35;;;5.00;98.30;;;;;;4104889;28;20692;-82
2021/04/04 02:26:01;;;;;;;27.77;13.50;;;5.00;98.30;;;;;;4114458;28;20236;-82
2021/04/04 02:28:04;;;;;;;27.88;13.75;;;5.00;98.30;;;;;;4118403;28;20319;-81
2021/04/04 02:30:08;;;;;;;27.88;14.00;;;5.10;98.30;;;;;;4114731;28;20232;-82
2021/04/04 02:32:14;;;;;;;20.98;12.95;;;5.10;98.30;;;;;;4110046;28;20673;-82
2021/04/04 02:34:21;;;;;;;24.45;14.02;;;5.10;98.30;;;;;;4107617;28;20259;-82
2021/04/04 02:36:25;;;;;;;22.92;11.93;;;5.10;98.30;;;;;;4101906;28;20313;-82
2021/04/04 02:38:31;;;;;;;29.35;14.30;;;5.20;98.30;;;;;;4101500;28;20991;-81
2021/04/04 02:40:50;;;;;;;23.75;13.75;;;5.20;98.30;;;;;;4110637;28;20239;-82
2021/04/04 02:42:54;;;;;;;27.30;13.65;;;5.20;98.30;;;;;;4113332;28;20243;-82
2021/04/04 02:44:58;;;;;;;22.05;13.75;;;5.20;98.30;;;;;;4115474;28;20720;-82
2021/04/04 02:47:05;;;;;;;26.63;12.98;;;5.30;98.30;;;;;;4110774;28;20733;-82
2021/04/04 02:49:09;;;;;;;23.25;12.55;;;5.30;98.30;;;;;;4111382;28;20233;-82
2021/04/04 02:51:15;;;;;;;23.10;14.05;;;5.30;98.30;;;;;;4107024;28;20238;-83
2021/04/04 02:53:20;;;;;;;27.17;14.25;;;5.30;98.30;;;;;;4107767;28;20223;-80
2021/04/04 02:55:24;;;;;;;20.30;11.80;;;5.30;98.30;;;;;;4114180;28;20228;-81
2021/04/04 02:57:31;;;;;;;28.13;12.70;;;5.30;98.30;;;;;;4108464;28;20603;-82
2021/04/04 02:59:41;;;;;;;21.17;12.85;;;5.30;98.30;;;;;;4112346;28;20245;-82
2021/04/04 03:01:45;;;;;;;23.30;13.57;;;5.20;98.30;;;;;;4117473;28;20251;-81
2021/04/04 03:03:50;;;;;;;19.80;11.73;;;5.10;98.30;;;;;;4106542;28;20245;-81
2021/04/04 03:05:54;;;;;;;22.90;12.52;;;5.00;98.30;;;;;;4112907;28;20233;-82
2021/04/04 03:08:01;;;;;;;23.70;13.40;;;5.10;98.30;;;;;;4114096;28;20239;-82
2021/04/04 03:10:06;;;;;;;19.70;12.52;;;5.20;98.30;;;;;;4122363;28;20327;-82
2021/04/04 03:12:09;;;;;;;20.63;12.05;;;5.20;98.30;;;;;;4112247;28;20236;-82
2021/04/04 03:14:11;;;;;;;22.00;12.10;;;5.20;98.30;;;;;;4110576;28;20764;-82
2021/04/04 03:16:15;;;;;;;21.05;12.20;;;5.20;98.30;;;;;;4110974;28;20233;-81
2021/04/04 03:18:19;;;;;;;22.75;12.80;;;5.20;98.30;;;;;;4103860;28;20225;-82
2021/04/04 03:20:22;;;;;;;23.13;12.98;;;5.20;98.30;;;;;;4108489;28;20242;-81
2021/04/04 03:22:25;;;;;;;29.90;13.77;;;5.10;98.30;;;;;;4108586;28;20237;-81
2021/04/04 03:24:30;;;;;;;23.48;12.00;;;5.10;98.30;;;;;;4109707;28;20229;-81
2021/04/04 03:26:32;;;;;;;21.73;12.25;;;5.10;98.30;;;;;;4112517;28;20234;-81
2021/04/04 03:28:36;;;;;;;23.23;12.07;;;5.00;98.30;;;;;;4106829;28;20236;-82
2021/04/04 03:30:45;;;;;;;25.55;13.77;;;5.00;98.30;;;;;;4113935;28;20287;-82
2021/04/04 03:32:47;;;;;;;20.70;12.77;;;4.90;98.30;;;;;;4123242;28;20323;-82
2021/04/04 03:34:49;;;;;;;25.08;13.43;;;4.90;98.30;;;;;;4109669;28;20244;-82
2021/04/04 03:36:52;;;;;;;30.88;13.70;;;4.90;98.30;;;;;;4111934;28;20331;-82
2021/04/04 03:38:55;;;;;;;25.13;12.23;;;4.90;98.30;;;;;;4112248;28;20248;-82
2021/04/04 03:40:58;;;;;;;27.92;12.77;;;4.90;98.30;;;;;;4113680;28;20243;-82
2021/04/04 03:43:03;;;;;;;25.88;12.90;;;4.90;98.30;;;;;;4113647;28;20244;-82
2021/04/04 03:45:07;;;;;;;22.88;12.50;;;4.90;98.30;;;;;;4115664;28;20237;-82
2021/04/04 03:47:11;;;;;;;21.17;12.55;;;5.00;98.30;;;;;;4110443;28;21012;-82
2021/04/04 03:49:13;;;;;;;23.80;11.27;;;5.00;98.30;;;;;;4108968;28;20339;-82
2021/04/04 03:51:16;;;;;;;28.45;13.90;;;5.10;98.30;;;;;;4135657;23;20240;-78
2021/04/04 03:53:20;;;;;;;23.33;11.93;;;5.00;98.30;;;;;;4129249;28;20233;-78
2021/04/04 03:55:25;;;;;;;24.45;12.52;;;4.90;98.30;;;;;;4131392;28;20240;-78
2021/04/04 03:57:28;;;;;;;21.40;11.98;;;4.90;98.30;;;;;;4129289;28;20252;-81
2021/04/04 03:59:33;;;;;;;21.42;12.07;;;4.80;98.30;;;;;;4127644;28;20233;-81
2021/04/04 04:01:39;;;;;;;24.50;12.43;;;4.80;98.30;;;;;;4124748;28;20327;-81
2021/04/04 04:03:41;;;;;;;27.05;13.00;;;4.70;98.30;;;;;;4120430;28;20267;-81
2021/04/04 04:05:44;;;;;;;17.48;12.20;;;4.80;98.30;;;;;;4120698;28;20260;-80
2021/04/04 04:07:47;;;;;;;22.10;11.90;;;4.90;98.30;;;;;;4122016;28;20236;-81
2021/04/04 04:09:50;;;;;;;21.60;11.80;;;4.90;98.30;;;;;;4117879;28;20235;-81
2021/04/04 04:11:53;;;;;;;27.75;12.93;;;4.80;98.30;;;;;;4115867;28;20251;-82
2021/04/04 04:13:58;;;;;;;26.20;13.75;;;4.80;98.30;;;;;;4117811;28;20243;-82
2021/04/04 04:16:01;;;;;;;25.17;13.00;;;4.80;98.30;;;;;;4116916;28;20240;-81
2021/04/04 04:18:04;;;;;;;34.53;15.27;;;4.80;98.30;;;;;;4116800;28;20236;-81
2021/04/04 04:20:08;;;;;;;24.70;12.27;;;4.80;98.30;;;;;;4116533;28;20229;-81
2021/04/04 04:22:10;;;;;;;21.65;12.10;;;4.70;98.30;;;;;;4116639;28;20224;-81
2021/04/04 04:24:14;;;;;;;24.48;12.50;;;4.80;98.30;;;;;;4118104;28;20229;-81
2021/04/04 04:26:19;;;;;;;23.17;13.00;;;4.80;98.30;;;;;;4118267;28;20229;-81
2021/04/04 04:28:21;;;;;;;26.63;12.48;;;4.80;98.30;;;;;;4114875;28;20755;-81
2021/04/04 04:30:25;;;;;;;23.33;13.15;;;4.90;98.30;;;;;;4116337;28;20243;-81
2021/04/04 04:32:29;;;;;;;29.88;14.55;;;4.90;98.30;;;;;;4117000;28;20229;-81
2021/04/04 04:34:32;;;;;;;30.17;13.45;;;4.90;98.30;;;;;;4115492;28;20236;-81
2021/04/04 04:36:35;;;;;;;19.83;12.38;;;4.90;98.30;;;;;;4115853;28;20233;-81
2021/04/04 04:38:39;;;;;;;26.95;11.50;;;5.00;98.30;;;;;;4117668;28;20241;-80
2021/04/04 04:40:42;;;;;;;22.05;11.95;;;5.00;98.30;;;;;;4115525;28;20233;-81
2021/04/04 04:42:47;;;;;;;22.77;12.90;;;5.00;98.30;;;;;;4117393;28;20300;-81
2021/04/04 04:44:51;;;;;;;27.85;12.05;;;5.00;98.30;;;;;;4116308;28;20233;-81
2021/04/04 04:46:55;;;;;;;28.42;11.68;;;5.00;98.30;;;;;;4119463;28;20237;-81
2021/04/04 04:48:57;;;;;;;25.75;11.95;;;5.00;98.30;;;;;;4116983;28;20233;-81
2021/04/04 04:50:59;;;;;;;18.17;12.77;;;5.00;98.30;;;;;;4117750;28;20236;-81
2021/04/04 04:53:02;;;;;;;25.75;10.70;;;5.00;98.30;;;;;;4119587;28;20237;-80
2021/04/04 04:55:06;;;;;;;24.88;10.38;;;5.00;98.30;;;;;;4117276;28;20229;-81
2021/04/04 04:57:09;;;;;;;26.83;12.25;;;5.10;98.30;;;;;;4118930;28;20368;-79
2021/04/04 04:59:12;;;;;;;26.88;11.30;;;5.10;98.30;;;;;;4116871;28;20240;-79
2021/04/04 05:01:16;;;;;;;22.67;11.38;;;5.10;98.30;;;;;;4120147;28;20239;-79
2021/04/04 05:03:19;;;;;;;22.80;11.88;;;5.10;98.30;;;;;;4120350;28;20663;-79
2021/04/04 05:05:22;;;;;;;20.75;11.02;;;5.10;98.30;;;;;;4119024;28;20229;-79
2021/04/04 05:07:24;;;;;;;26.92;11.27;;;5.20;98.30;;;;;;4120726;28;20238;-79
2021/04/04 05:09:27;;;;;;;18.15;9.35;;;5.20;98.30;;;;;;4118961;28;20723;-79
2021/04/04 05:11:31;;;;;;;19.13;10.18;;;5.20;98.30;;;;;;4119024;28;20240;-79
2021/04/04 05:13:34;;;;;;;27.67;12.23;;;5.10;98.30;;;;;;4120549;28;20232;-79
2021/04/04 05:15:41;;;;;;;25.90;10.90;;;5.10;98.30;;;;;;4119290;28;20252;-78
2021/04/04 05:17:43;;;;;;;21.00;10.70;;;5.20;98.30;;;;;;4118445;28;20263;-79
2021/04/04 05:19:46;;;;;;;23.20;11.52;;;5.20;98.30;;;;;;4118488;28;20228;-79
2021/04/04 05:21:48;;;;;;;19.00;11.05;;;5.20;98.30;;;;;;4116463;28;20275;-79
2021/04/04 05:23:55;;;;;;;19.45;9.90;;;5.20;98.30;;;;;;4118081;28;20225;-79
2021/04/04 05:26:01;;;;;;;21.40;10.63;;;5.20;98.30;;;;;;4117686;28;20272;-79
2021/04/04 05:28:04;;;;;;;24.88;11.40;;;5.10;98.30;;;;;;4118177;28;20235;-79
2021/04/04 05:30:10;;;;;;;16.85;9.20;;;5.10;98.30;;;;;;4113750;28;20724;-78
2021/04/04 05:32:12;;;;;;;16.60;9.70;;;5.10;98.30;;;;;;4117263;28;20753;-79
2021/04/04 05:34:16;;;;;;;18.05;9.88;;;5.10;98.30;;;;;;4117083;28;20286;-79
2021/04/04 05:36:19;;;;;;;21.42;10.88;;;5.20;98.30;;;;;;4117584;28;20247;-79
2021/04/04 05:38:21;;;;;;;17.45;8.70;;;5.20;98.30;;;;;;4117003;28;21114;-79
2021/04/04 05:40:25;;;;;;;21.48;9.70;;;5.20;98.30;;;;;;4118668;28;20638;-79
2021/04/04 05:42:30;;;;;;;16.25;8.40;;;5.20;98.30;;;;;;4127270;28;20226;-79
2021/04/04 05:44:37;;;;;;;16.98;7.72;;;5.30;98.30;;;;;;4121239;28;20225;-81
2021/04/04 05:46:45;;;;;;;15.40;9.70;;;5.30;98.30;;;;;;4120602;28;20217;-81
2021/04/04 05:48:57;;;;;;;14.10;8.45;;;5.40;98.30;;;;;;4118582;28;20826;-81
2021/04/04 05:51:13;;;;;;;24.10;9.77;;;5.40;98.30;;;;;;4115133;28;20238;-81
2021/04/04 05:53:24;;;;;;;17.48;10.05;;;5.50;98.30;;;;;;4116061;28;20239;-81
2021/04/04 05:55:38;;;;;;;15.52;8.10;;;5.50;98.30;;;;;;4117816;28;20653;-81
2021/04/04 05:57:48;;;;;;;18.92;10.07;;;5.50;98.30;;;;;;4116221;28;20316;-80
2021/04/04 05:59:57;;;;;;;20.08;10.60;;;5.40;98.30;;;;;;4116321;28;21252;-81
2021/04/04 06:02:18;;;;;;;16.88;8.27;;;5.40;98.30;;;;;;4117651;28;20220;-81
2021/04/04 06:04:53;;;;;;;14.35;7.85;;;5.50;98.30;;;;;;4114183;28;20222;-81
2021/04/04 06:07:12;;;;;;;16.13;7.88;;;5.60;98.30;;;;;;4117099;28;20233;-82
2021/04/04 06:09:56;;;;;;;12.37;7.93;;;5.60;98.30;;;;;;4118148;28;20309;-81
2021/04/04 06:12:08;;;;;;;16.50;7.53;;;5.70;98.30;;;;;;4116596;28;20837;-81
2021/04/04 06:14:21;;;;;;;21.20;7.30;;;5.70;98.30;;;;;;4115412;28;20500;-81
2021/04/04 06:16:30;;;;;;;17.67;8.00;;;5.70;98.30;;;;;;4115055;28;20323;-81
2021/04/04 06:18:46;;;;;;;19.77;6.17;;;5.70;98.30;;;;;;4116434;28;20496;-78
2021/04/04 06:20:55;;;;;;;13.40;7.20;;;5.80;98.30;;;;;;4115765;28;20496;-79
2021/04/04 06:23:06;;;;;;;13.50;6.93;;;5.80;98.30;;;;;;4116334;28;20903;-79
2021/04/04 06:25:11;;;;;;;10.90;6.10;;;5.80;98.30;;;;;;4116725;28;20496;-79
2021/04/04 06:27:21;;;;;;;15.30;6.90;;;5.80;98.30;;;;;;4115504;28;20544;-79
2021/04/04 06:29:35;;;;;;;15.57;7.17;;;5.80;98.30;;;;;;4114122;28;20242;-79
2021/04/04 06:31:53;;;;;;;17.53;8.27;;;5.90;98.30;;;;;;4115426;28;20540;-79
2021/04/04 06:34:06;;;;;;;16.83;7.80;;;5.90;98.30;;;;;;4115271;28;20497;-79
2021/04/04 06:36:23;;;;;;;19.53;8.33;;;5.90;98.30;;;;;;4114455;28;20508;-79
2021/04/04 06:38:36;;;;;;;17.03;7.30;;;5.90;98.30;;;;;;4114934;28;21021;-79
2021/04/04 06:40:47;;;;;;;14.00;7.20;;;5.90;98.30;;;;;;4116759;28;20498;-79
2021/04/04 06:43:07;;;;;;;14.33;6.17;;;6.00;98.30;;;;;;4115992;28;20488;-79
2021/04/04 06:45:18;;;;;;;13.83;6.80;;;6.00;98.30;;;;;;4114588;28;20506;-78
2021/04/04 06:47:29;;;;;;;14.70;7.70;;;6.10;98.30;;;;;;4112728;28;20485;-79
2021/04/04 06:49:40;;;;;;;12.93;6.50;;;6.00;98.30;;;;;;4113987;28;20493;-79
2021/04/04 06:51:53;;;;;;;14.03;6.00;;;6.10;98.30;;;;;;4117282;28;21027;-79
2021/04/04 06:54:10;;;;;;;9.40;5.83;;;6.10;98.30;;;;;;4117732;28;21030;-79
2021/04/04 06:56:19;;;;;;;18.87;6.87;;;6.00;98.30;;;;;;4119122;28;20578;-79
2021/04/04 06:58:33;;;;;;;12.97;6.03;;;6.10;98.30;;;;;;4119202;28;20496;-79
2021/04/04 07:00:43;;;;;;;10.57;5.50;;;6.20;98.30;;;;;;4119161;28;20553;-79
2021/04/04 07:02:54;;;;;;;11.13;6.50;;;6.20;98.30;;;;;;4120668;28;20490;-79
2021/04/04 07:04:59;;;;;;;15.33;6.40;;;6.10;98.30;;;;;;4120699;28;20540;-78
2021/04/04 07:07:24;;;;;;;15.10;5.30;;;6.20;98.30;;;;;;4121724;28;20501;-80
2021/04/04 07:10:05;;;;;;;14.10;6.00;;;6.20;98.30;;;;;;4116603;28;20494;-79
2021/04/04 07:12:32;;;;;;;10.70;6.23;;;6.10;98.30;;;;;;4038707;28;20503;-79
2021/04/04 07:15:00;;;;;;;14.10;6.93;;;6.00;98.30;;;;;;4118218;28;20508;-79
2021/04/04 07:17:26;;;;;;;13.17;7.00;;;6.00;98.30;;;;;;4119085;28;21007;-79
2021/04/04 07:19:40;;;;;;;12.30;5.73;;;6.10;98.30;;;;;;4115183;28;20530;-79
2021/04/04 07:21:56;;;;;;;12.90;6.37;;;6.10;98.30;;;;;;4114835;28;20497;-79
2021/04/04 07:24:11;;;;;;;17.93;6.20;;;6.10;98.30;;;;;;4116527;28;21267;-79
2021/04/04 07:26:38;;;;;;;13.37;6.27;;;6.10;98.30;;;;;;4119932;28;20592;-79
2021/04/04 07:29:05;;;;;;;10.00;6.30;;;6.10;98.30;;;;;;4120798;28;20499;-79
2021/04/04 07:31:10;;;;;;;15.00;6.47;;;6.10;98.30;;;;;;4121705;28;20511;-79
2021/04/04 07:33:23;;;;;;;14.07;5.90;;;6.20;98.30;;;;;;4119304;28;20489;-79
2021/04/04 07:35:43;;;;;;;15.40;5.83;;;6.20;98.30;;;;;;4118056;28;20573;-80
2021/04/04 07:37:51;;;;;;;17.33;7.30;;;6.20;98.30;;;;;;4116541;28;20517;-80
2021/04/04 07:40:08;;;;;;;11.33;5.70;;;6.30;98.30;;;;;;4117390;28;20500;-79
2021/04/04 07:42:17;;;;;;;13.43;5.83;;;6.40;98.30;;;;;;4116956;28;20508;-78
2021/04/04 07:44:26;;;;;;;12.47;7.17;;;6.30;98.30;;;;;;4117981;28;20506;-79
2021/04/04 07:46:36;;;;;;;16.00;7.20;;;6.40;98.30;;;;;;4115913;28;20509;-79
2021/04/04 07:48:49;;;;;;;21.23;6.07;;;6.40;98.30;;;;;;4115721;28;21426;-80
2021/04/04 07:50:59;;;;;;;9.57;6.63;;;6.40;98.30;;;;;;4112041;28;20555;-79
2021/04/04 07:53:18;;;;;;;19.53;6.80;;;6.40;98.30;;;;;;4113986;28;20584;-79
2021/04/04 07:55:30;;;;;;;18.50;7.90;;;6.40;98.30;;;;;;4114934;28;20544;-79
2021/04/04 07:57:43;;;;;;;16.60;7.37;;;6.30;98.30;;;;;;4114615;28;20496;-80
2021/04/04 07:59:50;;;;;;;13.80;6.60;;;6.30;98.30;;;;;;4114458;28;20512;-79
2021/04/04 08:01:58;;;;;;;15.17;6.90;;;6.30;98.30;;;;;;4113418;28;20493;-80
2021/04/04 08:04:07;;;;;;;13.93;6.80;;;6.40;98.30;;;;;;4113240;28;20518;-80
2021/04/04 08:06:12;;;;;;;13.90;6.20;;;6.50;98.30;;;;;;4115198;28;20563;-80
2021/04/04 08:08:20;;;;;;;25.07;7.00;;;6.60;98.30;;;;;;4115511;28;20496;-80
2021/04/04 08:10:28;;;;;;;15.67;7.30;;;6.70;98.30;;;;;;4115660;28;21101;-80
2021/04/04 08:12:39;;;;;;;26.73;10.57;;;6.80;98.30;;;;;;4115782;28;20498;-80
2021/04/04 08:14:50;;;;;;;16.53;7.30;;;6.90;98.30;;;;;;4117858;28;20503;-79
2021/04/04 08:16:57;;;;;;;16.40;6.70;;;6.90;98.30;;;;;;4117200;28;20501;-80
2021/04/04 08:18:59;;;;;;;13.43;6.30;;;6.80;98.30;;;;;;4118047;28;20496;-80
2021/04/04 08:21:04;;;;;;;22.83;8.03;;;6.90;98.30;;;;;;4121557;28;20524;-80
2021/04/04 08:23:14;;;;;;;17.93;6.90;;;7.00;98.30;;;;;;4121684;28;20890;-79
2021/04/04 08:25:21;;;;;;;23.50;8.17;;;6.90;98.30;;;;;;4120933;28;20495;-80
2021/04/04 08:27:27;;;;;;;15.33;7.20;;;6.90;98.30;;;;;;4121396;28;20926;-80
2021/04/04 08:29:32;;;;;;;10.37;6.50;;;7.00;98.30;;;;;;4121379;28;20492;-80
2021/04/04 08:31:39;;;;;;;23.00;10.80;;;6.90;98.30;;;;;;4121167;28;20494;-80
2021/04/04 08:33:46;;;;;;;12.37;7.27;;;6.80;98.30;;;;;;4121769;28;20493;-80
2021/04/04 08:35:55;;;;;;;15.80;7.13;;;6.80;98.30;;;;;;4122442;28;20610;-80
2021/04/04 08:38:06;;;;;;;14.20;6.90;;;6.80;98.30;;;;;;4121547;28;20494;-80
2021/04/04 08:40:12;;;;;;;13.80;6.60;;;6.80;98.30;;;;;;4121255;28;20486;-80
2021/04/04 08:42:17;;;;;;;10.97;5.90;;;6.90;98.30;;;;;;4123513;28;20506;-79
2021/04/04 08:44:22;;;;;;;12.73;6.20;;;6.80;98.30;;;;;;4121802;28;20624;-80
2021/04/04 08:46:32;;;;;;;17.67;7.20;;;6.90;98.30;;;;;;4123369;28;20495;-79
2021/04/04 08:48:35;;;;;;;12.00;5.73;;;7.00;98.30;;;;;;4120788;28;20508;-79
2021/04/04 08:50:42;;;;;;;13.57;6.17;;;7.00;98.30;;;;;;4120287;28;20488;-79
2021/04/04 08:52:49;;;;;;;12.33;5.97;;;7.10;98.30;;;;;;4115106;28;21071;-80
2021/04/04 08:54:54;;;;;;;11.77;5.67;;;7.20;98.30;;;;;;4116357;28;20540;-79
2021/04/04 08:56:58;;;;;;;11.40;5.27;;;7.30;98.30;;;;;;4117498;28;20492;-79
2021/04/04 08:59:03;;;;;;;16.00;5.87;;;7.30;98.30;;;;;;4120233;28;20487;-80
2021/04/04 09:01:14;;;;;;;21.23;10.27;;;7.20;98.30;;;;;;4121262;28;20492;-80
2021/04/04 09:03:19;;;;;;;19.40;10.17;;;7.10;98.30;;;;;;4119977;28;21459;-80
2021/04/04 09:05:25;;;;;;;15.03;6.00;;;7.10;98.30;;;;;;4120104;28;20502;-79
2021/04/04 09:07:27;;;;;;;12.37;6.77;;;7.20;98.30;;;;;;4121056;28;20511;-79
2021/04/04 09:09:34;;;;;;;14.57;5.90;;;7.20;98.30;;;;;;4119859;28;20499;-80
2021/04/04 09:11:38;;;;;;;14.83;5.90;;;7.10;98.30;;;;;;4120083;28;20580;-79
2021/04/04 09:13:40;;;;;;;18.83;8.93;;;7.10;98.30;;;;;;4121284;28;20499;-79
2021/04/04 09:15:46;;;;;;;36.27;17.63;;;7.00;98.30;;;;;;4122202;28;20494;-80
2021/04/04 09:17:54;;;;;;;17.50;7.70;;;7.10;98.30;;;;;;4119918;28;20502;-80
2021/04/04 09:20:00;;;;;;;9.50;5.10;;;7.20;98.30;;;;;;4117643;28;20579;-80
2021/04/04 09:22:06;;;;;;;14.40;5.70;;;7.20;98.30;;;;;;4118858;28;20498;-80
2021/04/04 09:24:10;;;;;;;10.30;5.27;;;7.30;98.30;;;;;;4117856;28;21085;-80
2021/04/04 09:26:17;;;;;;;14.23;4.40;;;7.30;98.30;;;;;;4119581;28;20524;-80
2021/04/04 09:28:21;;;;;;;13.43;4.53;;;7.20;98.30;;;;;;4112343;28;20580;-80
2021/04/04 09:30:33;;;;;;;10.57;5.30;;;7.10;98.30;;;;;;4118652;28;20484;-80
2021/04/04 09:32:39;;;;;;;11.33;5.20;;;7.10;98.30;;;;;;4118102;28;20540;-80
2021/04/04 09:34:44;;;;;;;10.63;5.83;;;7.10;98.30;;;;;;4117260;28;21017;-80
2021/04/04 09:36:47;;;;;;;10.00;5.00;;;7.30;98.30;;;;;;4119384;28;20495;-80
2021/04/04 09:38:51;;;;;;;20.00;9.80;;;7.30;98.30;;;;;;4118715;28;20500;-80
2021/04/04 09:40:53;;;;;;;17.17;6.60;;;7.40;98.30;;;;;;4118939;28;20488;-80
2021/04/04 09:43:04;;;;;;;7.57;4.40;;;7.60;98.30;;;;;;4117958;28;20488;-80
2021/04/04 09:45:14;;;;;;;9.60;4.33;;;7.70;98.30;;;;;;4117910;28;20547;-80
2021/04/04 09:47:17;;;;;;;8.63;3.93;;;7.80;98.30;;;;;;4118058;28;20500;-80
2021/04/04 09:49:34;;;;;;;6.23;3.90;;;7.80;98.30;;;;;;4117403;28;20491;-80
2021/04/04 09:51:46;;;;;;;5.80;3.80;;;7.80;98.30;;;;;;4116814;28;20500;-78
2021/04/04 09:53:51;;;;;;;4.80;3.70;;;7.80;98.30;;;;;;4116570;28;20504;-79
2021/04/04 09:55:53;;;;;;;4.83;3.90;;;7.80;98.30;;;;;;4116042;28;20484;-79
2021/04/04 09:57:56;;;;;;;9.53;4.47;;;7.70;98.30;;;;;;4114682;28;20488;-81
2021/04/04 09:59:58;;;;;;;11.03;4.03;;;7.70;98.30;;;;;;4115561;28;21041;-80
2021/04/04 10:02:00;;;;;;;17.97;4.43;;;7.70;98.30;;;;;;4115118;28;20488;-80
2021/04/04 10:04:05;;;;;;;8.13;3.83;;;7.70;98.30;;;;;;4116168;28;20509;-80
2021/04/04 10:06:11;;;;;;;9.30;5.30;;;7.70;98.30;;;;;;4115854;28;20570;-80
2021/04/04 10:08:15;;;;;;;6.70;3.80;;;7.70;98.30;;;;;;4115179;28;20480;-80
2021/04/04 10:10:29;;;;;;;5.37;3.87;;;7.70;98.30;;;;;;4116067;28;20498;-80
2021/04/04 10:12:53;;;;;;;8.70;4.40;;;7.70;98.30;;;;;;4115835;28;20860;-80
2021/04/04 10:15:03;;;;;;;11.00;5.40;;;7.60;98.30;;;;;;4115533;28;20503;-80
2021/04/04 10:17:10;;;;;;;8.20;5.23;;;7.60;98.30;;;;;;4114439;28;20502;-80
2021/04/04 10:19:15;;;;;;;16.47;6.13;;;7.70;98.30;;;;;;4115705;28;20491;-79
2021/04/04 10:21:17;;;;;;;7.80;5.47;;;7.80;98.30;;;;;;4115395;28;20576;-80
2021/04/04 10:23:20;;;;;;;10.30;4.97;;;7.70;98.30;;;;;;4117168;28;20587;-80
2021/04/04 10:25:22;;;;;;;9.77;5.27;;;7.50;98.30;;;;;;4112373;28;20550;-80
2021/04/04 10:27:26;;;;;;;12.60;4.13;;;7.60;98.30;;;;;;4116142;28;20499;-80
2021/04/04 10:29:28;;;;;;;15.83;5.20;;;7.70;98.30;;;;;;4115603;28;20531;-80
2021/04/04 10:31:46;;;;;;;6.93;4.53;;;7.80;98.30;;;;;;4113406;28;20491;-80
2021/04/04 10:33:57;;;;;;;11.50;3.40;;;7.80;98.30;;;;;;4114990;28;20892;-80
2021/04/04 10:36:11;;;;;;;9.43;4.23;;;8.00;98.30;;;;;;4116392;28;21313;-79
2021/04/04 10:38:14;;;;;;;6.37;3.40;;;8.10;98.30;;;;;;4112983;28;21011;-80
2021/04/04 10:40:17;;;;;;;7.93;4.30;;;8.00;98.30;;;;;;4115505;28;20502;-80
2021/04/04 10:42:19;;;;;;;6.73;4.00;;;8.00;98.30;;;;;;4114210;28;20903;-81
2021/04/04 10:44:22;;;;;;;9.40;3.93;;;8.00;98.30;;;;;;4113651;28;20832;-78
2021/04/04 10:46:26;;;;;;;6.23;3.60;;;8.00;98.30;;;;;;4112485;28;20488;-78
2021/04/04 10:48:28;;;;;;;6.53;3.57;;;8.00;98.30;;;;;;4110913;28;20499;-78
2021/04/04 10:50:31;;;;;;;8.13;3.53;;;8.20;98.30;;;;;;4112073;28;20528;-78
2021/04/04 10:52:33;;;;;;;4.70;3.33;;;8.20;98.30;;;;;;4112319;28;20558;-77
2021/04/04 10:54:36;;;;;;;9.17;3.47;;;8.30;98.30;;;;;;4110586;28;20566;-78
2021/04/04 10:56:38;;;;;;;6.33;3.43;;;8.30;98.30;;;;;;4111524;28;20491;-78